createdAt,value
2022-10-16T00:04:23.700Z,3.50
2022-10-16T00:09:25.392Z,4.13
2022-10-16T00:14:27.019Z,3.53
2022-10-16T00:19:28.734Z,4.30
2022-10-16T00:24:31.466Z,3.93
2022-10-16T00:29:33.122Z,4.03
2022-10-16T00:34:35.016Z,3.27
2022-10-16T00:39:36.800Z,4.33
2022-10-16T00:44:51.058Z,4.17
2022-10-16T00:49:56.733Z,4.27
2022-10-16T00:54:59.259Z,4.47
2022-10-16T01:00:01.960Z,3.80
2022-10-16T01:05:04.510Z,4.57
2022-10-16T01:10:24.047Z,4.07
2022-10-16T01:15:51.222Z,4.90
2022-10-16T01:21:26.476Z,4.27
2022-10-16T01:26:59.195Z,4.10
2022-10-16T01:32:06.515Z,4.03
2022-10-16T01:37:16.478Z,4.03
2022-10-16T01:42:22.836Z,4.23
2022-10-16T01:47:26.907Z,3.77
2022-10-16T01:52:30.561Z,4.63
2022-10-16T01:57:32.573Z,4.20
2022-10-16T02:02:35.197Z,4.40
2022-10-16T02:07:36.966Z,3.27
2022-10-16T02:12:43.023Z,4.10
2022-10-16T02:17:44.800Z,3.30
2022-10-16T02:22:53.507Z,3.67
2022-10-16T02:28:09.986Z,3.33
2022-10-16T02:33:14.644Z,3.03
2022-10-16T02:38:17.814Z,4.30
2022-10-16T02:43:19.860Z,3.27
2022-10-16T02:48:31.361Z,3.53
2022-10-16T02:53:33.283Z,3.67
2022-10-16T02:58:34.975Z,3.30
2022-10-16T03:03:42.701Z,3.33
2022-10-16T03:08:55.614Z,3.07
2022-10-16T03:13:57.429Z,3.33
2022-10-16T03:19:06.626Z,3.40
2022-10-16T03:24:08.382Z,3.13
2022-10-16T03:29:10.188Z,3.07
2022-10-16T03:34:13.587Z,2.60
2022-10-16T03:39:15.462Z,3.07
2022-10-16T03:44:19.085Z,3.00
2022-10-16T03:49:29.623Z,2.73
2022-10-16T03:54:31.462Z,2.73
2022-10-16T03:59:33.280Z,2.23
2022-10-16T04:04:35.036Z,2.50
2022-10-16T04:09:36.705Z,2.90
2022-10-16T04:14:38.606Z,2.63
2022-10-16T04:19:41.278Z,2.43
2022-10-16T04:24:49.119Z,2.30
2022-10-16T04:29:52.956Z,1.90
2022-10-16T04:34:55.067Z,2.40
2022-10-16T04:39:59.755Z,2.17
2022-10-16T04:45:01.499Z,2.10
2022-10-16T04:50:03.508Z,2.10
2022-10-16T04:55:16.904Z,1.90
2022-10-16T05:00:18.783Z,1.97
2022-10-16T05:05:20.872Z,2.07
2022-10-16T05:10:22.977Z,2.07
2022-10-16T05:15:29.478Z,2.53
2022-10-16T05:20:33.563Z,1.77
2022-10-16T05:25:35.395Z,2.13
2022-10-16T05:30:38.468Z,1.90
2022-10-16T05:35:43.324Z,2.40
2022-10-16T05:40:54.687Z,2.10
2022-10-16T05:46:06.746Z,2.70
2022-10-16T05:51:11.250Z,1.73
2022-10-16T05:56:13.993Z,2.00
2022-10-16T06:01:18.414Z,2.10
2022-10-16T06:06:26.740Z,1.90
2022-10-16T06:11:33.034Z,2.30
2022-10-16T06:16:36.386Z,1.80
2022-10-16T06:21:38.518Z,2.23
2022-10-16T06:26:40.254Z,1.50
2022-10-16T06:31:43.308Z,1.53
2022-10-16T06:37:00.645Z,1.80
2022-10-16T06:42:02.410Z,1.47
2022-10-16T06:47:06.983Z,1.50
2022-10-16T06:52:08.864Z,2.80
2022-10-16T06:57:11.123Z,1.90
2022-10-16T07:02:19.798Z,1.50
2022-10-16T07:07:21.587Z,1.67
2022-10-16T07:12:23.633Z,1.23
2022-10-16T07:17:25.528Z,1.50
2022-10-16T07:22:32.914Z,2.07
2022-10-16T07:27:35.192Z,1.60
2022-10-16T07:32:52.128Z,1.70
2022-10-16T07:37:56.895Z,1.60
2022-10-16T07:42:58.603Z,1.53
2022-10-16T07:48:00.495Z,1.63
2022-10-16T07:53:02.236Z,1.60
2022-10-16T07:58:04.241Z,1.70
2022-10-16T08:03:06.067Z,1.40
2022-10-16T08:08:07.907Z,1.70
2022-10-16T08:13:13.852Z,1.13
2022-10-16T08:18:16.569Z,0.97
2022-10-16T08:23:30.612Z,1.20
2022-10-16T08:28:33.461Z,1.17
2022-10-16T08:33:36.270Z,1.63
2022-10-16T08:38:52.634Z,1.00
2022-10-16T08:44:06.177Z,1.63
2022-10-16T08:49:14.587Z,1.20
2022-10-16T09:00:19.791Z,0.90
2022-10-16T09:05:53.826Z,1.57
2022-10-16T09:10:55.896Z,1.27
2022-10-16T09:16:25.730Z,1.20
2022-10-16T09:26:55.150Z,1.47
2022-10-16T09:31:59.019Z,1.20
2022-10-16T09:37:16.148Z,1.03
2022-10-16T09:42:36.014Z,1.13
2022-10-16T09:47:45.357Z,0.97
2022-10-16T09:52:48.386Z,1.53
2022-10-16T09:58:17.770Z,0.97
2022-10-16T10:03:45.074Z,0.90
2022-10-16T10:10:09.642Z,1.00
2022-10-16T10:15:34.912Z,0.90
2022-10-16T10:20:43.556Z,1.30
2022-10-16T10:25:53.906Z,0.70
2022-10-16T10:31:01.543Z,1.40
2022-10-16T10:36:19.954Z,0.90
2022-10-16T10:41:50.378Z,1.20
2022-10-16T10:46:54.982Z,2.23
2022-10-16T10:52:35.531Z,1.37
2022-10-16T10:58:15.673Z,1.20
2022-10-16T11:03:38.707Z,1.33
2022-10-16T11:09:02.001Z,0.97
2022-10-16T11:14:13.026Z,1.20
2022-10-16T11:19:20.153Z,1.07
2022-10-16T11:24:27.753Z,1.00
2022-10-16T11:29:32.372Z,1.10
2022-10-16T11:34:45.132Z,1.00
2022-10-16T11:39:48.280Z,0.97
2022-10-16T11:44:58.891Z,1.00
2022-10-16T11:50:18.927Z,1.43
2022-10-16T11:55:48.566Z,1.00
2022-10-16T12:01:10.486Z,1.13
2022-10-16T12:06:35.676Z,6.70
2022-10-16T12:11:47.085Z,2.27
2022-10-16T12:16:53.031Z,1.30
2022-10-16T12:21:59.109Z,1.27
2022-10-16T12:27:34.585Z,0.83
2022-10-16T12:32:46.692Z,1.50
2022-10-16T12:37:48.974Z,1.60
2022-10-16T12:42:50.807Z,1.00
2022-10-16T12:47:55.022Z,1.20
2022-10-16T12:52:56.955Z,1.07
2022-10-16T12:58:32.513Z,1.40
2022-10-16T13:04:14.354Z,4.87
2022-10-16T13:09:25.721Z,1.30
2022-10-16T13:15:06.293Z,1.30
2022-10-16T13:20:20.213Z,1.30
2022-10-16T13:25:43.568Z,1.37
2022-10-16T13:30:52.136Z,1.53
2022-10-16T13:35:55.922Z,1.20
2022-10-16T13:41:01.231Z,1.50
2022-10-16T13:52:20.283Z,1.40
2022-10-16T14:03:05.879Z,5.10
2022-10-16T14:08:11.184Z,3.13
2022-10-16T14:13:19.660Z,1.37
2022-10-16T14:18:23.665Z,4.73
2022-10-16T14:23:33.711Z,2.03
2022-10-16T14:35:03.189Z,1.63
2022-10-16T14:40:11.874Z,1.73
2022-10-16T14:45:19.556Z,1.40
2022-10-16T14:50:21.238Z,5.50
2022-10-16T15:00:29.883Z,4.37
2022-10-16T15:05:33.205Z,3.07
2022-10-16T15:10:41.362Z,1.80
2022-10-16T15:15:48.203Z,1.70
2022-10-16T15:20:51.003Z,2.20
2022-10-16T15:25:56.811Z,2.87
2022-10-16T15:30:58.524Z,2.57
2022-10-16T15:36:00.863Z,2.50
2022-10-16T15:41:03.143Z,2.23
2022-10-16T15:46:06.991Z,1.90
2022-10-16T15:51:09.425Z,6.13
2022-10-16T15:56:12.334Z,2.93
2022-10-16T16:01:14.478Z,2.73
2022-10-16T16:06:16.384Z,2.43
2022-10-16T16:11:19.494Z,3.80
2022-10-16T16:16:21.565Z,2.70
2022-10-16T16:21:23.451Z,1.80
2022-10-16T16:26:27.443Z,2.03
2022-10-16T16:31:34.580Z,2.80
2022-10-16T16:36:39.461Z,2.27
2022-10-16T16:41:41.283Z,5.17
2022-10-16T16:46:44.434Z,3.57
2022-10-16T16:51:46.343Z,4.20
2022-10-16T16:56:48.167Z,2.63
2022-10-16T17:01:56.680Z,2.70
2022-10-16T17:06:58.864Z,2.07
2022-10-16T17:12:00.973Z,2.03
2022-10-16T17:17:02.768Z,2.70
2022-10-16T17:22:04.531Z,2.20
2022-10-16T17:27:06.327Z,2.73
2022-10-16T17:32:08.113Z,5.73
2022-10-16T17:37:13.138Z,2.97
2022-10-16T17:42:16.386Z,2.73
2022-10-16T17:47:18.197Z,2.60
2022-10-16T17:52:19.872Z,4.60
2022-10-16T17:57:21.813Z,3.97
2022-10-16T18:02:23.585Z,5.10
2022-10-16T18:07:25.271Z,13.63
2022-10-16T18:12:27.203Z,4.67
2022-10-16T18:17:30.031Z,2.87
2022-10-16T18:22:36.102Z,2.70
2022-10-16T18:27:37.736Z,2.53
2022-10-16T18:32:39.619Z,3.63
2022-10-16T18:37:41.345Z,4.93
2022-10-16T18:42:43.978Z,7.87
2022-10-16T18:47:46.055Z,3.90
2022-10-16T18:52:48.998Z,4.63
2022-10-16T18:57:51.066Z,3.90
2022-10-16T19:03:04.015Z,5.00
2022-10-16T19:08:05.833Z,5.10
2022-10-16T19:13:11.148Z,4.57
2022-10-16T19:18:13.186Z,4.27
2022-10-16T19:23:15.081Z,4.60
2022-10-16T19:28:19.605Z,3.80
2022-10-16T19:35:01.633Z,3.17
2022-10-16T19:40:10.363Z,3.17
2022-10-16T19:45:33.862Z,2.90
2022-10-16T19:50:35.642Z,3.27
2022-10-16T19:55:37.267Z,3.27
2022-10-16T20:00:42.337Z,3.20
2022-10-16T20:05:54.203Z,3.23
2022-10-16T20:10:55.927Z,3.20
2022-10-16T20:15:57.627Z,2.40
2022-10-16T20:20:59.456Z,2.30
2022-10-16T20:26:04.034Z,3.10
2022-10-16T20:36:34.770Z,3.03
2022-10-16T20:41:37.012Z,3.43
2022-10-16T20:46:51.416Z,3.60
2022-10-16T20:51:53.167Z,10.63
2022-10-16T20:56:57.300Z,16.20
2022-10-16T21:01:59.307Z,6.57
2022-10-16T21:07:01.111Z,4.50
2022-10-16T21:12:05.377Z,4.63
2022-10-16T21:17:08.515Z,4.93
2022-10-16T21:22:10.798Z,5.23
2022-10-16T21:27:12.577Z,4.90
2022-10-16T21:32:14.624Z,5.27
2022-10-16T21:37:16.329Z,5.00
2022-10-16T21:42:18.253Z,4.67
2022-10-16T21:47:19.952Z,5.70
2022-10-16T21:52:21.609Z,5.17
2022-10-16T21:57:23.232Z,4.40
2022-10-16T22:02:24.932Z,4.57
2022-10-16T22:07:26.825Z,5.07
2022-10-16T22:12:29.690Z,4.70
2022-10-16T22:17:31.322Z,4.17
2022-10-16T22:22:33.000Z,3.87
2022-10-16T22:27:34.667Z,4.20
2022-10-16T22:32:36.336Z,3.60
2022-10-16T22:37:37.999Z,3.87
2022-10-16T22:42:39.673Z,3.30
2022-10-16T22:47:41.400Z,3.00
2022-10-16T22:52:43.057Z,3.93
2022-10-16T22:57:44.790Z,3.90
2022-10-16T23:02:46.600Z,3.80
2022-10-16T23:07:49.942Z,3.33
2022-10-16T23:12:51.612Z,3.50
2022-10-16T23:17:53.250Z,3.27
2022-10-16T23:22:54.976Z,3.97
2022-10-16T23:27:56.836Z,4.37
2022-10-16T23:32:58.493Z,4.00
2022-10-16T23:38:00.288Z,4.10
2022-10-16T23:43:02.471Z,3.83
2022-10-16T23:48:04.144Z,3.47
2022-10-16T23:53:09.427Z,5.10
2022-10-16T23:58:11.961Z,4.03
